createdAt,value
2023-03-19T00:01:26.641Z,6.15
2023-03-19T00:04:25.458Z,6.16
2023-03-19T00:07:22.297Z,6.06
2023-03-19T00:10:19.178Z,6.16
2023-03-19T00:13:16.488Z,5.98
2023-03-19T00:16:13.357Z,5.83
2023-03-19T00:19:10.409Z,6.00
2023-03-19T00:22:07.383Z,5.81
2023-03-19T00:25:04.677Z,5.71
2023-03-19T00:28:01.616Z,5.66
2023-03-19T00:30:58.525Z,5.63
2023-03-19T00:33:58.037Z,5.69
2023-03-19T00:36:56.313Z,5.76
2023-03-19T00:39:53.136Z,5.59
2023-03-19T00:42:49.959Z,5.64
2023-03-19T00:45:47.836Z,5.45
2023-03-19T00:48:44.673Z,5.53
2023-03-19T00:51:43.950Z,5.35
2023-03-19T00:54:41.433Z,5.48
2023-03-19T00:57:38.241Z,5.40
2023-03-19T01:00:38.029Z,5.18
2023-03-19T01:03:35.961Z,5.38
2023-03-19T01:06:32.946Z,5.38
2023-03-19T01:09:29.806Z,5.24
2023-03-19T01:12:26.679Z,5.63
2023-03-19T01:15:23.500Z,5.32
2023-03-19T01:18:20.652Z,5.25
2023-03-19T01:21:17.737Z,5.18
2023-03-19T01:24:14.582Z,5.16
2023-03-19T01:27:11.792Z,5.16
2023-03-19T01:30:09.548Z,5.16
2023-03-19T01:33:06.710Z,5.24
2023-03-19T01:36:05.463Z,5.27
2023-03-19T01:39:02.582Z,4.63
2023-03-19T01:42:03.185Z,5.08
2023-03-19T01:45:03.143Z,4.68
2023-03-19T01:48:00.859Z,4.66
2023-03-19T01:50:59.596Z,4.73
2023-03-19T01:54:02.479Z,4.83
2023-03-19T01:57:07.257Z,4.73
2023-03-19T02:00:08.137Z,4.64
2023-03-19T02:03:06.292Z,4.56
2023-03-19T02:06:03.447Z,4.61
2023-03-19T02:09:00.502Z,4.43
2023-03-19T02:11:57.802Z,4.46
2023-03-19T02:14:54.863Z,4.64
2023-03-19T02:17:51.672Z,3.99
2023-03-19T02:21:06.996Z,4.37
2023-03-19T02:24:22.141Z,4.55
2023-03-19T02:27:19.701Z,4.27
2023-03-19T02:30:28.641Z,4.29
2023-03-19T02:33:25.892Z,4.08
2023-03-19T02:36:23.452Z,3.78
2023-03-19T02:39:38.102Z,3.87
2023-03-19T02:42:35.414Z,3.75
2023-03-19T02:45:32.727Z,4.05
2023-03-19T02:48:29.617Z,3.92
2023-03-19T02:51:26.441Z,3.85
2023-03-19T02:54:23.359Z,4.11
2023-03-19T02:57:20.491Z,3.99
2023-03-19T03:00:18.799Z,3.91
2023-03-19T03:03:16.207Z,3.74
2023-03-19T03:06:13.915Z,3.57
2023-03-19T03:09:12.703Z,3.80
2023-03-19T03:12:09.835Z,4.03
2023-03-19T03:15:08.584Z,3.80
2023-03-19T03:18:06.155Z,3.92
2023-03-19T03:21:03.733Z,3.68
2023-03-19T03:24:01.222Z,3.75
2023-03-19T03:26:58.082Z,3.62
2023-03-19T03:29:54.878Z,3.57
2023-03-19T03:32:51.990Z,3.01
2023-03-19T03:35:48.866Z,3.44
2023-03-19T03:38:46.036Z,3.32
2023-03-19T03:41:42.875Z,3.48
2023-03-19T03:44:39.682Z,3.63
2023-03-19T03:47:37.291Z,3.53
2023-03-19T03:50:34.301Z,3.60
2023-03-19T03:53:31.722Z,3.46
2023-03-19T03:56:28.626Z,3.41
2023-03-19T03:59:25.931Z,3.38
2023-03-19T04:02:23.166Z,3.35
2023-03-19T04:05:20.062Z,3.14
2023-03-19T04:08:17.216Z,3.10
2023-03-19T04:11:14.359Z,3.19
2023-03-19T04:14:11.178Z,3.37
2023-03-19T04:17:08.143Z,2.90
2023-03-19T04:20:06.547Z,3.51
2023-03-19T04:23:03.472Z,3.28
2023-03-19T04:26:06.890Z,3.14
2023-03-19T04:29:04.567Z,3.60
2023-03-19T04:32:01.581Z,3.42
2023-03-19T04:34:58.599Z,3.52
2023-03-19T04:37:55.428Z,3.07
2023-03-19T04:40:52.646Z,3.16
2023-03-19T04:43:49.494Z,3.33
2023-03-19T04:46:46.459Z,3.19
2023-03-19T04:49:43.366Z,3.41
2023-03-19T04:52:40.236Z,3.50
2023-03-19T04:55:37.163Z,3.46
2023-03-19T04:58:34.414Z,3.51
2023-03-19T05:01:31.450Z,3.27
2023-03-19T05:04:28.318Z,3.29
2023-03-19T05:07:25.180Z,3.38
2023-03-19T05:10:22.017Z,3.54
2023-03-19T05:13:21.502Z,3.45
2023-03-19T05:16:18.663Z,3.56
2023-03-19T05:19:16.334Z,3.77
2023-03-19T05:22:13.155Z,4.03
2023-03-19T05:25:10.051Z,3.93
2023-03-19T05:28:08.293Z,3.98
2023-03-19T05:31:05.418Z,3.96
2023-03-19T05:34:02.306Z,4.01
2023-03-19T05:36:59.136Z,3.97
2023-03-19T05:39:55.968Z,4.06
2023-03-19T05:42:52.775Z,4.07
2023-03-19T05:45:52.996Z,3.93
2023-03-19T05:48:51.540Z,4.06
2023-03-19T05:51:48.401Z,4.22
2023-03-19T05:54:49.237Z,4.25
2023-03-19T05:57:45.986Z,4.16
2023-03-19T06:00:42.968Z,4.38
2023-03-19T06:03:39.856Z,4.12
2023-03-19T06:06:36.707Z,4.35
2023-03-19T06:09:33.805Z,4.14
2023-03-19T06:12:31.165Z,4.36
2023-03-19T06:15:28.012Z,4.40
2023-03-19T06:18:24.944Z,4.53
2023-03-19T06:21:21.961Z,4.73
2023-03-19T06:24:19.198Z,4.65
2023-03-19T06:27:16.236Z,4.61
2023-03-19T06:30:13.797Z,4.73
2023-03-19T06:33:10.676Z,4.61
2023-03-19T06:36:07.871Z,4.76
2023-03-19T06:39:04.696Z,4.94
2023-03-19T06:42:01.784Z,5.10
2023-03-19T06:44:58.757Z,5.27
2023-03-19T06:47:56.130Z,5.00
2023-03-19T06:50:52.964Z,5.16
2023-03-19T06:53:49.806Z,5.34
2023-03-19T06:56:47.036Z,5.03
2023-03-19T06:59:43.857Z,5.16
2023-03-19T07:02:40.939Z,5.29
2023-03-19T07:05:37.890Z,5.44
2023-03-19T07:08:34.754Z,5.45
2023-03-19T07:11:33.207Z,5.41
2023-03-19T07:14:32.062Z,5.52
2023-03-19T07:17:28.865Z,5.62
2023-03-19T07:20:25.900Z,5.65
2023-03-19T07:23:22.811Z,5.77
2023-03-19T07:26:19.760Z,5.64
2023-03-19T07:29:17.684Z,5.67
2023-03-19T07:32:14.714Z,5.73
2023-03-19T07:35:11.680Z,5.74
2023-03-19T07:38:08.518Z,5.76
2023-03-19T07:41:05.544Z,5.87
2023-03-19T07:44:02.420Z,5.67
2023-03-19T07:46:59.243Z,5.66
2023-03-19T07:49:56.624Z,5.89
2023-03-19T07:52:53.443Z,6.02
2023-03-19T07:55:50.503Z,6.09
2023-03-19T07:58:47.369Z,5.92
2023-03-19T08:01:44.229Z,6.07
2023-03-19T08:04:41.965Z,6.19
2023-03-19T08:07:39.039Z,6.21
2023-03-19T08:10:38.152Z,6.46
2023-03-19T08:13:35.338Z,6.77
2023-03-19T08:16:32.274Z,6.10
2023-03-19T08:19:29.162Z,6.42
2023-03-19T08:22:26.221Z,6.63
2023-03-19T08:25:23.599Z,6.63
2023-03-19T08:28:20.461Z,6.59
2023-03-19T08:31:17.346Z,6.51
2023-03-19T08:34:14.320Z,6.51
2023-03-19T08:37:11.242Z,6.47
2023-03-19T08:40:09.806Z,6.52
2023-03-19T08:43:07.328Z,6.62
2023-03-19T08:46:05.963Z,6.55
2023-03-19T08:49:03.097Z,6.59
2023-03-19T08:51:59.926Z,6.65
2023-03-19T08:54:56.752Z,6.63
2023-03-19T08:57:53.632Z,6.77
2023-03-19T09:00:50.934Z,6.87
2023-03-19T09:03:47.947Z,6.79
2023-03-19T09:06:45.229Z,6.92
2023-03-19T09:09:43.865Z,6.92
2023-03-19T09:12:40.670Z,6.91
2023-03-19T09:15:37.667Z,6.84
2023-03-19T09:18:34.960Z,6.81
2023-03-19T09:21:31.921Z,6.82
2023-03-19T09:24:28.768Z,6.84
2023-03-19T09:27:25.645Z,6.83
2023-03-19T09:30:22.573Z,6.98
2023-03-19T09:33:21.527Z,7.02
2023-03-19T09:36:18.423Z,7.07
2023-03-19T09:39:15.323Z,7.24
2023-03-19T09:42:42.862Z,7.14
2023-03-19T09:45:39.866Z,7.20
2023-03-19T09:48:47.384Z,7.34
2023-03-19T09:52:16.764Z,7.43
2023-03-19T09:55:23.818Z,7.40
2023-03-19T09:58:33.127Z,7.56
2023-03-19T10:01:37.279Z,7.59
2023-03-19T10:05:00.958Z,7.83
2023-03-19T10:08:45.691Z,7.69
2023-03-19T10:11:45.828Z,7.53
2023-03-19T10:15:04.258Z,7.57
2023-03-19T10:18:05.458Z,7.60
2023-03-19T10:21:16.313Z,7.87
2023-03-19T10:24:22.816Z,7.98
2023-03-19T10:27:23.739Z,8.06
2023-03-19T10:30:21.473Z,8.23
2023-03-19T10:33:26.183Z,8.58
2023-03-19T10:36:31.437Z,8.90
2023-03-19T10:39:30.691Z,8.57
2023-03-19T10:42:43.630Z,8.92
2023-03-19T10:45:40.862Z,8.69
2023-03-19T10:48:45.673Z,8.80
2023-03-19T10:51:48.995Z,8.90
2023-03-19T10:54:46.461Z,8.95
2023-03-19T10:57:48.772Z,9.01
2023-03-19T11:00:56.142Z,9.45
2023-03-19T11:03:58.211Z,9.90
2023-03-19T11:07:01.912Z,10.10
2023-03-19T11:09:58.850Z,9.59
2023-03-19T11:13:07.360Z,10.39
2023-03-19T11:16:05.802Z,10.63
2023-03-19T11:19:02.657Z,10.77
2023-03-19T11:22:23.071Z,10.47
2023-03-19T11:25:42.187Z,10.03
2023-03-19T11:28:43.002Z,10.25
2023-03-19T11:32:22.203Z,11.04
2023-03-19T11:35:57.608Z,10.62
2023-03-19T11:39:27.285Z,11.21
2023-03-19T11:42:36.077Z,10.89
2023-03-19T11:46:08.110Z,10.61
2023-03-19T11:49:49.692Z,10.80
2023-03-19T11:53:31.906Z,10.87
2023-03-19T11:56:50.260Z,10.71
2023-03-19T12:00:12.354Z,10.63
2023-03-19T12:03:44.929Z,10.21
2023-03-19T12:07:16.462Z,10.86
2023-03-19T12:10:44.797Z,10.57
2023-03-19T12:14:08.121Z,10.34
2023-03-19T12:17:44.664Z,11.04
2023-03-19T12:20:54.362Z,11.43
2023-03-19T12:24:29.844Z,11.85
2023-03-19T12:27:40.904Z,11.71
2023-03-19T12:31:00.568Z,10.89
2023-03-19T12:34:31.116Z,11.30
2023-03-19T12:37:55.198Z,12.27
2023-03-19T12:41:13.159Z,11.79
2023-03-19T12:44:21.889Z,12.20
2023-03-19T12:47:31.310Z,11.64
2023-03-19T12:50:31.285Z,12.41
2023-03-19T12:53:47.149Z,12.59
2023-03-19T12:56:57.066Z,12.36
2023-03-19T13:00:32.800Z,11.95
2023-03-19T13:03:59.230Z,12.00
2023-03-19T13:07:07.376Z,12.83
2023-03-19T13:10:16.203Z,12.65
2023-03-19T13:13:42.863Z,12.50
2023-03-19T13:17:07.316Z,12.99
2023-03-19T13:20:44.260Z,12.46
2023-03-19T13:23:45.384Z,14.87
2023-03-19T13:26:43.843Z,16.85
2023-03-19T13:30:01.899Z,15.82
2023-03-19T13:33:12.925Z,14.46
2023-03-19T13:36:15.033Z,14.05
2023-03-19T13:39:28.222Z,13.84
2023-03-19T13:42:42.178Z,13.53
2023-03-19T13:45:39.228Z,14.57
2023-03-19T13:48:39.148Z,14.46
2023-03-19T13:51:36.619Z,14.46
2023-03-19T13:54:38.292Z,14.49
2023-03-19T13:57:36.142Z,14.05
2023-03-19T14:00:45.184Z,14.71
2023-03-19T14:03:58.702Z,14.11
2023-03-19T14:07:19.996Z,14.24
2023-03-19T14:10:31.203Z,13.48
2023-03-19T14:13:37.926Z,13.83
2023-03-19T14:16:46.508Z,13.31
2023-03-19T14:19:43.496Z,12.95
2023-03-19T14:23:06.417Z,13.70
2023-03-19T14:26:23.440Z,14.58
2023-03-19T14:29:24.833Z,15.74
2023-03-19T14:32:31.903Z,15.29
2023-03-19T14:35:32.317Z,13.91
2023-03-19T14:38:47.714Z,14.59
2023-03-19T14:41:48.913Z,13.61
2023-03-19T14:45:14.546Z,14.00
2023-03-19T14:49:02.750Z,14.42
2023-03-19T14:52:10.390Z,13.79
2023-03-19T14:55:14.618Z,14.11
2023-03-19T14:58:12.930Z,13.07
2023-03-19T15:01:09.834Z,12.68
2023-03-19T15:04:11.029Z,11.98
2023-03-19T15:07:21.948Z,13.10
2023-03-19T15:10:22.215Z,13.09
2023-03-19T15:13:54.002Z,13.19
2023-03-19T15:17:19.000Z,12.51
2023-03-19T15:20:22.809Z,11.82
2023-03-19T15:23:27.455Z,11.85
2023-03-19T15:26:34.244Z,11.20
2023-03-19T15:29:37.867Z,11.98
2023-03-19T15:33:10.524Z,11.80
2023-03-19T15:36:21.893Z,11.82
2023-03-19T15:39:22.581Z,11.34
2023-03-19T15:42:20.611Z,11.16
2023-03-19T15:45:22.154Z,11.23
2023-03-19T15:48:42.536Z,11.03
2023-03-19T15:51:41.637Z,10.89
2023-03-19T15:54:39.001Z,10.97
2023-03-19T15:57:39.393Z,11.00
2023-03-19T16:00:41.367Z,10.81
2023-03-19T16:03:55.259Z,11.04
2023-03-19T16:06:52.711Z,10.72
2023-03-19T16:09:49.700Z,10.81
2023-03-19T16:12:49.888Z,11.25
2023-03-19T16:15:59.932Z,11.56
2023-03-19T16:18:59.115Z,11.17
2023-03-19T16:21:56.875Z,10.91
2023-03-19T16:24:55.715Z,11.00
2023-03-19T16:27:52.897Z,10.90
2023-03-19T16:30:51.106Z,10.51
2023-03-19T16:33:51.863Z,10.93
2023-03-19T16:36:48.762Z,10.45
2023-03-19T16:39:58.711Z,10.17
2023-03-19T16:43:05.905Z,10.01
2023-03-19T16:46:12.781Z,10.44
2023-03-19T16:49:09.613Z,9.74
2023-03-19T16:52:13.387Z,10.06
2023-03-19T16:55:25.473Z,9.58
2023-03-19T16:58:36.038Z,9.67
2023-03-19T17:01:32.959Z,9.39
2023-03-19T17:04:29.790Z,9.54
2023-03-19T17:07:26.622Z,9.40
2023-03-19T17:10:28.570Z,9.27
2023-03-19T17:13:29.784Z,9.33
2023-03-19T17:16:27.909Z,9.39
2023-03-19T17:19:32.233Z,9.60
2023-03-19T17:22:29.310Z,9.57
2023-03-19T17:25:26.194Z,9.44
2023-03-19T17:28:24.402Z,9.15
2023-03-19T17:31:33.334Z,9.12
2023-03-19T17:34:31.994Z,9.20
2023-03-19T17:37:30.921Z,9.26
2023-03-19T17:40:28.276Z,9.12
2023-03-19T17:43:25.557Z,9.16
2023-03-19T17:46:26.113Z,9.08
2023-03-19T17:49:30.012Z,9.06
2023-03-19T17:52:26.888Z,8.95
2023-03-19T17:55:29.824Z,8.74
2023-03-19T17:58:26.769Z,8.73
2023-03-19T18:01:28.118Z,8.95
2023-03-19T18:04:25.071Z,8.76
2023-03-19T18:07:22.166Z,8.98
2023-03-19T18:10:23.107Z,8.73
2023-03-19T18:13:19.984Z,8.70
2023-03-19T18:16:25.825Z,8.79
2023-03-19T18:19:31.510Z,8.71
2023-03-19T18:22:29.098Z,8.66
2023-03-19T18:25:28.041Z,8.72
2023-03-19T18:28:25.080Z,8.58
2023-03-19T18:31:25.619Z,8.51
2023-03-19T18:34:22.469Z,8.44
2023-03-19T18:37:19.639Z,8.36
2023-03-19T18:40:23.685Z,8.28
2023-03-19T18:43:20.964Z,8.39
2023-03-19T18:46:27.997Z,8.41
2023-03-19T18:49:27.159Z,8.19
2023-03-19T18:52:23.974Z,8.25
2023-03-19T18:55:25.021Z,8.36
2023-03-19T18:58:27.832Z,8.20
2023-03-19T19:01:25.734Z,8.25
2023-03-19T19:04:22.607Z,8.26
2023-03-19T19:07:19.490Z,8.27
2023-03-19T19:10:16.654Z,8.02
2023-03-19T19:13:24.733Z,8.18
2023-03-19T19:16:30.897Z,7.89
2023-03-19T19:19:27.920Z,8.07
2023-03-19T19:22:24.780Z,8.13
2023-03-19T19:25:24.750Z,8.02
2023-03-19T19:28:27.740Z,7.96
2023-03-19T19:31:28.723Z,8.11
2023-03-19T19:34:25.518Z,7.98
2023-03-19T19:37:23.499Z,8.04
2023-03-19T19:40:26.544Z,7.80
2023-03-19T19:43:27.386Z,7.97
2023-03-19T19:46:24.599Z,7.88
2023-03-19T19:49:22.394Z,8.00
2023-03-19T19:52:20.406Z,7.95
2023-03-19T19:55:17.323Z,8.04
2023-03-19T19:58:31.540Z,7.64
2023-03-19T20:01:28.423Z,7.67
2023-03-19T20:04:25.642Z,7.65
2023-03-19T20:07:22.805Z,7.93
2023-03-19T20:10:21.080Z,7.67
2023-03-19T20:13:33.554Z,7.78
2023-03-19T20:16:30.473Z,7.86
2023-03-19T20:19:27.501Z,7.22
2023-03-19T20:22:24.362Z,7.37
2023-03-19T20:25:24.414Z,7.31
2023-03-19T20:28:32.423Z,7.26
2023-03-19T20:31:31.567Z,7.08
2023-03-19T20:34:38.864Z,7.08
2023-03-19T20:37:36.374Z,7.13
2023-03-19T20:40:48.886Z,7.19
2023-03-19T20:43:46.379Z,7.37
2023-03-19T20:46:43.260Z,7.26
2023-03-19T20:49:40.140Z,7.12
2023-03-19T20:52:36.955Z,7.11
2023-03-19T20:55:36.832Z,6.84
2023-03-19T20:58:36.997Z,7.09
2023-03-19T21:01:33.925Z,7.12
2023-03-19T21:04:31.678Z,7.07
2023-03-19T21:07:35.822Z,6.91
2023-03-19T21:10:44.166Z,7.23
2023-03-19T21:13:41.343Z,7.18
2023-03-19T21:16:38.825Z,7.03
2023-03-19T21:19:37.181Z,6.97
2023-03-19T21:22:34.872Z,6.95
2023-03-19T21:25:32.978Z,7.29
2023-03-19T21:28:36.271Z,7.28
2023-03-19T21:31:33.493Z,7.31
2023-03-19T21:34:30.567Z,7.01
2023-03-19T21:37:27.382Z,7.20
2023-03-19T21:40:30.863Z,7.28
2023-03-19T21:43:42.763Z,7.14
2023-03-19T21:46:39.728Z,7.11
2023-03-19T21:49:36.557Z,7.22
2023-03-19T21:52:45.749Z,7.25
2023-03-19T21:55:52.396Z,7.38
2023-03-19T21:58:52.130Z,7.04
2023-03-19T22:01:49.157Z,6.99
2023-03-19T22:04:45.993Z,6.97
2023-03-19T22:07:42.833Z,6.92
2023-03-19T22:10:40.514Z,7.16
2023-03-19T22:13:37.623Z,7.29
2023-03-19T22:16:34.612Z,7.14
2023-03-19T22:19:31.452Z,7.24
2023-03-19T22:22:29.070Z,7.16
2023-03-19T22:25:33.307Z,7.18
2023-03-19T22:28:34.514Z,7.36
2023-03-19T22:31:32.269Z,7.07
2023-03-19T22:34:29.155Z,6.81
2023-03-19T22:37:29.463Z,7.18
2023-03-19T22:40:26.494Z,7.12
2023-03-19T22:43:36.313Z,6.84
2023-03-19T22:46:33.933Z,7.20
2023-03-19T22:49:31.476Z,7.12
2023-03-19T22:52:29.103Z,6.91
2023-03-19T22:55:25.991Z,7.08
2023-03-19T22:58:24.206Z,7.12
2023-03-19T23:01:21.234Z,7.02
2023-03-19T23:04:32.215Z,6.78
2023-03-19T23:07:28.998Z,7.08
2023-03-19T23:10:30.043Z,7.17
2023-03-19T23:13:27.009Z,6.92
2023-03-19T23:16:25.207Z,6.97
2023-03-19T23:19:35.154Z,6.95
2023-03-19T23:22:32.054Z,6.97
2023-03-19T23:25:29.841Z,6.79
2023-03-19T23:28:34.317Z,6.95
2023-03-19T23:31:31.964Z,6.98
2023-03-19T23:34:28.913Z,6.99
2023-03-19T23:37:25.981Z,6.70
2023-03-19T23:40:30.160Z,6.69
2023-03-19T23:43:28.935Z,6.82
2023-03-19T23:46:25.842Z,6.87
2023-03-19T23:49:32.211Z,6.84
2023-03-19T23:52:29.163Z,6.83
2023-03-19T23:55:27.020Z,6.75
2023-03-19T23:58:29.791Z,6.70
